Archival Weather

Abadan

Abadan, Iran (OIAA)

Report from: Wednesday, December 6, 2023 5:00 PM UTC
Current time: Friday, February 23, 2024 8:56 PM UTC

Current weather – Weather history – Daily summaries
Weather forecast

Temperature18.0°C (64.4°F)
Dew point9.0°C (48.2°F)
Winds 2 kts (1 m/s, 2.3 mph) Northeast (50°)
Visibility4.3 mi. (7 km)
Altimeter30.06 in.Hg (1018 mB)
Relative humidity56 %
Density altitude357 ft. (109 m)
Flight conditions Marginal Visual Meteorological Conditions
Raw dataOIAA 061700Z 05002KT 7000 NSC 18/09 Q1018
An error has occurred. This application may no longer respond until reloaded. Reload 🗙